Time;durP1;ratioP1;P1;durP2;ratioP2;P2;SDS_P1;SDS_P2;PMS_P1;PMS_P2;Temp;Humidity;BMP_temperature;BMP_pressure;BME280_temperature;BME280_humidity;BME280_pressure;Samples;Min_cycle;Max_cycle;Signal;HPM_P1;HPM_P2
2023/01/05 00:01:03;;;;;;;22.52;4.57;;;;;;;10.35;100.00;67918.03;5015522;28;20038;-85
2023/01/05 00:03:28;;;;;;;21.77;3.90;;;;;;;;;;4998133;28;20052;-85
2023/01/05 00:05:59;;;;;;;22.08;3.65;;;;;;;10.33;100.00;67915.78;4993329;28;20062;-85
2023/01/05 00:08:24;;;;;;;25.73;5.10;;;;;;;10.29;100.00;67911.81;5000496;28;20042;-84
2023/01/05 00:24:38;;;;;;;22.35;4.55;;;;;;;10.21;100.00;67902.13;5010397;28;20084;-85
2023/01/05 00:27:03;;;;;;;26.15;4.10;;;;;;;10.19;100.00;67899.88;4997793;28;20054;-84
2023/01/05 00:29:28;;;;;;;25.35;5.40;;;;;;;10.20;100.00;67898.34;5005917;28;20057;-84
2023/01/05 00:31:54;;;;;;;26.55;5.55;;;;;;;10.20;100.00;67901.56;4992602;28;20039;-85
2023/01/05 00:34:19;;;;;;;21.83;4.68;;;;;;;;;;4991372;28;20045;-85
2023/01/05 00:36:44;;;;;;;22.48;4.88;;;;;;;;;;4980906;28;20043;-83
2023/01/05 00:39:10;;;;;;;25.38;3.97;;;;;;;10.14;100.00;67895.34;4986265;28;20054;-85
2023/01/05 00:41:35;;;;;;;25.15;4.25;;;;;;;10.16;100.00;67902.38;4988894;28;20030;-84
2023/01/05 00:44:00;;;;;;;20.98;3.50;;;;;;;10.13;100.00;67894.22;4991229;28;20129;-85
2023/01/05 00:46:26;;;;;;;23.95;5.40;;;;;;;10.12;100.00;67893.06;4990387;28;20057;-86
2023/01/05 00:48:51;;;;;;;25.95;4.53;;;;;;;10.07;100.00;67887.41;5001500;28;20038;-84
2023/01/05 00:51:16;;;;;;;19.58;4.95;;;;;;;10.07;100.00;67886.81;4988945;28;20038;-86
2023/01/05 00:53:41;;;;;;;25.90;4.75;;;;;;;;;;4997797;28;20521;-84
2023/01/05 00:56:07;;;;;;;29.77;6.57;;;;;;;;;;4990018;28;20519;-86
2023/01/05 00:58:32;;;;;;;26.42;4.32;;;;;;;10.02;100.00;67881.72;4988493;28;20108;-85
2023/01/05 01:00:57;;;;;;;24.42;5.15;;;;;;;10.02;100.00;67881.72;4992118;28;20026;-82
2023/01/05 01:03:23;;;;;;;24.52;4.85;;;;;;;;;;4998760;28;20080;-86
2023/01/05 01:05:58;;;;;;;23.02;3.33;;;;;;;9.98;100.00;67874.53;5007414;28;20668;-84
2023/01/05 01:08:23;;;;;;;26.30;4.78;;;;;;;9.99;100.00;67877.75;4993634;28;20497;-86
2023/01/05 01:10:49;;;;;;;21.08;5.63;;;;;;;9.95;100.00;67873.78;4997378;28;20072;-86
2023/01/05 01:13:14;;;;;;;23.73;4.35;;;;;;;9.96;100.00;67874.38;4986576;28;20096;-86
2023/01/05 01:15:39;;;;;;;25.50;5.57;;;;;;;9.94;100.00;67867.34;4993348;28;20495;-83
2023/01/05 01:18:05;;;;;;;23.65;4.60;;;;;;;9.90;100.00;67868.69;4992435;28;20132;-84
2023/01/05 01:20:30;;;;;;;24.85;4.28;;;;;;;9.89;100.00;67866.97;4998314;28;20029;-84
2023/01/05 01:22:59;;;;;;;26.40;5.32;;;;;;;9.87;100.00;67865.28;4993469;28;20565;-83
2023/01/05 01:25:24;;;;;;;23.35;3.80;;;;;;;;;;4988506;28;20049;-84
2023/01/05 01:27:49;;;;;;;23.77;4.05;;;;;;;;;;4988594;28;20042;-84
2023/01/05 01:30:14;;;;;;;26.92;5.55;;;;;;;;;;4983586;28;20042;-84
2023/01/05 01:32:40;;;;;;;25.85;5.00;;;;;;;9.73;100.00;67849.41;4988793;28;20050;-84
2023/01/05 01:35:05;;;;;;;31.10;5.40;;;;;;;9.69;100.00;67844.84;4989811;28;20397;-84
2023/01/05 01:37:30;;;;;;;22.63;4.93;;;;;;;;;;4991428;28;20042;-84
2023/01/05 01:39:56;;;;;;;21.87;4.27;;;;;;;9.63;100.00;67838.06;4993823;28;20083;-85
2023/01/05 01:42:21;;;;;;;34.83;7.43;;;;;;;;;;4988915;28;20364;-85
2023/01/05 01:44:56;;;;;;;29.52;5.25;;;;;;;9.55;100.00;67829.56;4987472;28;20038;-85
2023/01/05 01:47:24;;;;;;;24.75;5.00;;;;;;;9.54;100.00;67828.44;4983650;28;20046;-83
2023/01/05 01:49:51;;;;;;;33.38;5.05;;;;;;;9.52;100.00;67826.16;4989765;28;20740;-84
2023/01/05 01:52:16;;;;;;;29.13;6.28;;;;;;;;;;4985241;28;20093;-85
2023/01/05 01:54:42;;;;;;;23.60;4.55;;;;;;;9.49;100.00;67822.75;4988251;28;20049;-85
2023/01/05 01:57:10;;;;;;;27.35;6.75;;;;;;;9.47;100.00;67820.50;4988629;28;20068;-84
2023/01/05 01:59:35;;;;;;;31.58;5.38;;;;;;;;;;4988018;28;20076;-84
2023/01/05 02:02:01;;;;;;;30.35;4.95;;;;;;;9.44;100.00;67817.09;4993681;28;20049;-84
2023/01/05 02:04:30;;;;;;;24.20;4.25;;;;;;;9.42;100.00;67812.72;4985851;28;20054;-86
2023/01/05 02:06:55;;;;;;;;;;;;;;;;;;4998011;28;20076;-84
2023/01/05 02:09:20;;;;;;;27.83;5.38;;;;;;;9.33;100.00;67805.19;4996974;28;19917;-85
2023/01/05 02:12:05;;;;;;;30.75;6.10;;;;;;;9.34;100.00;67806.31;4990712;28;20481;-84
2023/01/05 02:14:36;;;;;;;24.23;4.70;;;;;;;9.36;100.00;67813.34;4992812;28;20045;-84
2023/01/05 02:17:23;;;;;;;22.60;4.32;;;;;;;9.35;100.00;67806.88;4987099;28;20643;-85
2023/01/05 02:20:22;;;;;;;26.13;4.38;;;;;;;9.35;100.00;67807.47;4995841;28;20053;-83
2023/01/05 02:22:57;;;;;;;33.67;5.82;;;;;;;9.34;100.00;67805.75;4972518;28;20042;-84
2023/01/05 02:25:42;;;;;;;24.42;4.95;;;;;;;9.34;100.00;67801.00;4998440;28;20056;-83
2023/01/05 02:28:16;;;;;;;32.00;5.00;;;;;;;9.35;100.00;67806.88;4988439;28;20039;-84
2023/01/05 02:31:19;;;;;;;29.55;6.20;;;;;;;9.36;100.00;67813.34;4991553;28;20057;-82
2023/01/05 02:34:06;;;;;;;33.90;5.20;;;;;;;9.34;100.00;67803.09;4987238;28;20105;-85
2023/01/05 02:36:39;;;;;;;31.30;5.78;;;;;;;9.33;100.00;67810.50;4963965;28;20043;-84
2023/01/05 02:39:15;;;;;;;28.88;6.45;;;;;;;9.35;100.00;67806.88;4984056;28;20038;-84
2023/01/05 02:41:56;;;;;;;30.30;6.03;;;;;;;9.36;100.00;67805.38;4980971;28;20066;-84
2023/01/05 02:44:22;;;;;;;28.80;5.47;;;;;;;9.33;100.00;67805.19;4989227;28;20114;-84
2023/01/05 02:47:02;;;;;;;39.55;6.00;;;;;;;9.32;100.00;67804.06;4995330;28;20065;-83
2023/01/05 02:49:30;;;;;;;26.60;5.53;;;;;;;9.32;100.00;67808.78;4999077;28;20443;-84
2023/01/05 02:51:59;;;;;;;22.55;4.07;;;;;;;9.32;100.00;67804.06;4986460;28;20038;-85
2023/01/05 02:54:36;;;;;;;;;;;;;;;9.32;100.00;67800.81;4991642;28;20401;-84
2023/01/05 02:57:09;;;;;;;34.03;6.72;;;;;;;9.24;100.00;67795.56;4986316;28;19918;-84
2023/01/05 02:59:44;;;;;;;32.97;5.40;;;;;;;9.24;100.00;67792.34;5003644;28;20050;-85
2023/01/05 03:02:30;;;;;;;30.33;5.60;;;;;;;9.26;100.00;67797.81;4986625;28;20054;-84
2023/01/05 03:05:04;;;;;;;20.17;3.85;;;;;;;9.28;100.00;67799.53;4980395;28;20578;-84
2023/01/05 03:07:33;;;;;;;24.73;5.25;;;;;;;9.29;100.00;67800.06;4974126;28;20181;-85
2023/01/05 03:13:39;;;;;;;;;;;;;;;9.30;100.00;67806.53;4988322;28;20038;-85
2023/01/05 03:15:31;;;;;;;30.15;5.80;;;;;;;9.23;100.00;67791.75;4984964;28;20054;-85
2023/01/05 03:17:57;;;;;;;29.52;5.90;;;;;;;;;;4989895;28;20502;-84
2023/01/05 03:20:28;;;;;;;32.05;4.85;;;;;;;9.28;100.00;67799.53;4991975;28;20072;-85
2023/01/05 03:38:05;;;;;;;27.67;4.25;;;;;;;9.14;100.00;67784.22;4992388;28;20682;-83
2023/01/05 03:40:33;;;;;;;30.63;4.85;;;;;;;9.11;100.00;67786.13;4980375;28;20065;-86
2023/01/05 03:43:00;;;;;;;32.30;6.78;;;;;;;9.11;100.00;67778.16;4981396;28;20039;-85
2023/01/05 03:45:31;;;;;;;26.80;5.00;;;;;;;;;;4990571;28;20042;-85
2023/01/05 03:47:56;;;;;;;30.30;5.78;;;;;;;9.11;100.00;67780.81;4984615;28;20038;-85
2023/01/05 03:50:22;;;;;;;26.70;5.15;;;;;;;9.09;100.00;67778.56;4993210;28;20035;-84
2023/01/05 03:52:47;;;;;;;32.58;6.28;;;;;;;9.08;100.00;67776.84;4996082;28;20095;-85
2023/01/05 03:55:12;;;;;;;30.58;5.32;;;;;;;9.07;100.00;67773.06;4994046;28;20655;-86
2023/01/05 03:57:37;;;;;;;26.77;5.00;;;;;;;;;;4997036;28;20073;-84
2023/01/05 04:00:03;;;;;;;30.08;5.97;;;;;;;9.01;100.00;67769.50;4995869;28;20042;-85
2023/01/05 04:02:29;;;;;;;37.40;6.82;;;;;;;;;;4991441;28;20044;-85
2023/01/05 04:04:54;;;;;;;40.03;6.60;;;;;;;;;;4989221;28;20394;-84
2023/01/05 04:07:19;;;;;;;27.50;5.57;;;;;;;9.00;100.00;67773.66;4987216;28;20500;-86
2023/01/05 04:09:44;;;;;;;26.25;6.43;;;;;;;;;;4987199;28;20031;-84
2023/01/05 04:12:10;;;;;;;31.67;6.53;;;;;;;9.01;100.00;67769.50;4999136;28;20145;-84
2023/01/05 04:14:35;;;;;;;25.27;5.68;;;;;;;8.99;100.00;67767.78;4996176;28;20081;-84
2023/01/05 04:17:00;;;;;;;33.15;6.05;;;;;;;;;;4996328;28;20046;-84
2023/01/05 04:19:26;;;;;;;33.47;5.35;;;;;;;9.01;100.00;67769.50;4994923;28;20050;-86
2023/01/05 04:21:51;;;;;;;28.30;5.05;;;;;;;;;;4982976;28;20043;-85
2023/01/05 04:24:16;;;;;;;31.38;5.53;;;;;;;9.07;100.00;67776.28;4996632;28;20394;-84
2023/01/05 04:26:42;;;;;;;32.20;5.22;;;;;;;;;;4986697;28;20042;-85
2023/01/05 04:29:08;;;;;;;35.10;5.95;;;;;;;;;;4991674;28;20102;-83
2023/01/05 04:31:33;;;;;;;31.65;5.40;;;;;;;;;;4989876;28;20089;-84
2023/01/05 04:33:59;;;;;;;27.35;5.75;;;;;;;9.15;100.00;67785.34;4993081;28;20046;-86
2023/01/05 04:36:24;;;;;;;23.45;5.97;;;;;;;9.16;100.00;67786.47;4989332;28;20034;-85
2023/01/05 04:38:49;;;;;;;30.63;5.05;;;;;;;9.16;100.00;67783.81;4995055;28;20057;-86
2023/01/05 04:41:15;;;;;;;29.70;4.95;;;;;;;9.15;100.00;67790.66;4996519;28;21092;-85
2023/01/05 04:43:40;;;;;;;26.95;6.50;;;;;;;9.15;100.00;67782.13;4984513;28;20046;-84
2023/01/05 04:46:06;;;;;;;29.00;7.65;;;;;;;9.16;100.00;67785.91;4991376;28;20073;-85
2023/01/05 04:48:31;;;;;;;27.45;4.43;;;;;;;9.14;100.00;67778.91;4996148;28;20521;-85
2023/01/05 04:50:57;;;;;;;30.10;7.05;;;;;;;9.13;100.00;67782.53;4991606;28;20571;-84
2023/01/05 04:53:22;;;;;;;34.58;6.55;;;;;;;9.08;100.00;67777.41;5005844;28;20097;-85
2023/01/05 04:55:48;;;;;;;34.40;8.35;;;;;;;9.02;100.00;67775.94;4993184;28;20042;-84
2023/01/05 04:58:13;;;;;;;32.90;7.78;;;;;;;8.98;100.00;67763.44;4991584;28;20054;-85
2023/01/05 05:00:39;;;;;;;29.90;7.68;;;;;;;8.96;100.00;67763.81;4991258;28;20046;-85
2023/01/05 05:03:04;;;;;;;24.98;5.85;;;;;;;8.91;100.00;67758.72;4992839;28;20127;-85
2023/01/05 05:05:30;;;;;;;28.88;5.55;;;;;;;8.93;100.00;67760.41;4988807;28;20065;-85
2023/01/05 05:07:55;;;;;;;25.85;5.05;;;;;;;8.93;100.00;67760.41;4995404;28;20084;-86
2023/01/05 05:10:20;;;;;;;33.85;6.28;;;;;;;8.92;100.00;67769.91;4994165;28;20117;-86
2023/01/05 05:12:46;;;;;;;39.92;8.07;;;;;;;8.92;100.00;67759.28;5002110;28;20046;-84
2023/01/05 05:15:11;;;;;;;38.15;6.90;;;;;;;8.91;100.00;67758.16;4990512;28;20046;-84
2023/01/05 05:17:36;;;;;;;29.60;6.82;;;;;;;8.90;100.00;67762.34;4998123;28;20061;-84
2023/01/05 05:20:02;;;;;;;30.83;6.40;;;;;;;8.91;100.00;67758.16;4996926;28;20202;-85
2023/01/05 05:22:28;;;;;;;36.70;7.82;;;;;;;8.91;100.00;67755.50;4990886;28;20058;-85
2023/01/05 05:24:53;;;;;;;29.00;5.88;;;;;;;8.90;100.00;67757.03;4998624;28;20486;-84
2023/01/05 05:27:18;;;;;;;30.20;7.13;;;;;;;;;;4996845;28;20038;-85
2023/01/05 05:29:44;;;;;;;25.67;5.68;;;;;;;8.88;100.00;67755.31;4997620;28;20046;-84
2023/01/05 05:32:09;;;;;;;25.40;4.90;;;;;;;8.89;100.00;67756.47;4992432;28;20046;-85
2023/01/05 05:34:35;;;;;;;38.78;7.82;;;;;;;8.88;100.00;67760.06;5000980;28;20057;-84
2023/01/05 05:37:00;;;;;;;33.55;7.43;;;;;;;8.88;100.00;67755.31;4983528;28;20042;-84
2023/01/05 05:39:25;;;;;;;31.05;6.47;;;;;;;8.88;100.00;67754.75;4997152;28;20066;-86
2023/01/05 05:41:51;;;;;;;27.83;5.95;;;;;;;;;;5000166;28;20121;-84
2023/01/05 05:44:16;;;;;;;36.00;6.75;;;;;;;8.89;100.00;67755.88;5002328;28;20047;-83
2023/01/05 05:46:41;;;;;;;30.73;6.38;;;;;;;;;;4987820;28;20047;-84
2023/01/05 05:49:07;;;;;;;30.50;6.47;;;;;;;8.88;100.00;67754.75;4984218;28;20042;-85
2023/01/05 05:51:33;;;;;;;30.83;6.32;;;;;;;8.87;100.00;67751.53;4984472;28;20042;-85
2023/01/05 05:53:59;;;;;;;22.88;5.32;;;;;;;8.88;100.00;67749.44;4988617;28;20512;-85
2023/01/05 05:56:24;;;;;;;30.95;6.47;;;;;;;;;;4981560;28;20042;-85
2023/01/05 05:58:49;;;;;;;29.38;5.93;;;;;;;8.90;100.00;67757.03;4996802;28;20105;-84
2023/01/05 06:01:14;;;;;;;26.63;5.78;;;;;;;;;;4990932;28;20039;-84
2023/01/05 06:03:40;;;;;;;33.20;6.57;;;;;;;;;;4992879;28;20069;-84
2023/01/05 06:06:06;;;;;;;35.53;6.18;;;;;;;8.89;100.00;67755.88;4987574;28;20042;-87
2023/01/05 06:08:31;;;;;;;28.67;6.45;;;;;;;;;;4987672;28;20038;-84
2023/01/05 06:10:57;;;;;;;28.00;6.25;;;;;;;8.87;100.00;67758.94;4985371;28;20126;-85
2023/01/05 06:13:22;;;;;;;38.33;8.23;;;;;;;;;;4990137;28;20041;-84
2023/01/05 06:15:48;;;;;;;31.95;8.13;;;;;;;8.86;100.00;67749.81;4986299;28;20039;-86
2023/01/05 06:18:13;;;;;;;26.05;6.93;;;;;;;;;;4981088;28;20057;-83
2023/01/05 06:20:39;;;;;;;36.28;6.82;;;;;;;;;;5007354;28;20039;-85
2023/01/05 06:23:04;;;;;;;32.22;6.90;;;;;;;;;;4990371;28;20038;-86
2023/01/05 06:25:30;;;;;;;24.83;5.43;;;;;;;8.83;100.00;67749.66;4992945;28;20069;-84
2023/01/05 06:27:55;;;;;;;26.40;5.65;;;;;;;8.82;100.00;67745.88;4992815;28;20042;-86
2023/01/05 06:30:20;;;;;;;34.65;6.65;;;;;;;;;;4995015;28;20132;-87
2023/01/05 06:32:45;;;;;;;31.83;7.23;;;;;;;;;;4996949;28;20043;-85
2023/01/05 06:35:11;;;;;;;30.13;6.70;;;;;;;;;;4994680;28;20343;-84
2023/01/05 06:37:36;;;;;;;23.05;4.47;;;;;;;8.84;100.00;67758.75;4992300;28;20108;-84
2023/01/05 06:40:02;;;;;;;30.83;7.38;;;;;;;;;;4995353;28;20045;-84
2023/01/05 06:42:27;;;;;;;29.77;6.20;;;;;;;8.86;100.00;67757.78;4995605;28;20494;-84
2023/01/05 06:44:52;;;;;;;30.17;6.18;;;;;;;;;;4988641;28;20046;-83
2023/01/05 06:47:18;;;;;;;26.05;4.72;;;;;;;8.88;100.00;67760.63;4997109;28;20050;-83
2023/01/05 06:49:44;;;;;;;30.50;6.38;;;;;;;8.88;100.00;67754.75;4992613;28;20039;-84
2023/01/05 06:52:09;;;;;;;30.02;5.90;;;;;;;8.88;100.00;67755.31;4991671;28;20039;-86
2023/01/05 06:54:35;;;;;;;24.98;5.65;;;;;;;;;;4983793;28;20049;-84
2023/01/05 06:57:00;;;;;;;29.40;7.15;;;;;;;;;;4990260;28;20050;-84
2023/01/05 06:59:26;;;;;;;26.85;5.82;;;;;;;8.90;100.00;67762.34;4997856;28;20173;-86
2023/01/05 07:01:52;;;;;;;36.83;6.57;;;;;;;8.90;100.00;67757.03;4997277;28;20045;-87
2023/01/05 07:04:17;;;;;;;24.77;5.10;;;;;;;;;;4978937;28;20077;-84
2023/01/05 07:06:42;;;;;;;34.00;6.82;;;;;;;8.92;100.00;67756.63;4993250;28;20042;-83
2023/01/05 07:09:08;;;;;;;33.75;6.95;;;;;;;8.94;100.00;67758.91;4994570;28;20065;-87
2023/01/05 07:11:33;;;;;;;24.33;5.90;;;;;;;;;;4991962;28;20038;-83
2023/01/05 07:13:58;;;;;;;23.63;6.30;;;;;;;8.95;100.00;67760.59;4986989;28;20047;-83
2023/01/05 07:16:24;;;;;;;33.42;5.82;;;;;;;;;;4995749;28;20563;-85
2023/01/05 07:18:49;;;;;;;26.55;6.32;;;;;;;;;;4987484;28;20664;-84
2023/01/05 07:21:14;;;;;;;23.38;5.13;;;;;;;8.99;100.00;67773.09;4983330;28;20130;-88
2023/01/05 07:23:40;;;;;;;28.20;6.72;;;;;;;9.01;100.00;67766.84;4986626;28;20047;-86
2023/01/05 07:26:08;;;;;;;28.75;4.93;;;;;;;9.02;100.00;67770.63;4993811;28;20050;-85
2023/01/05 07:28:35;;;;;;;32.13;6.85;;;;;;;9.02;100.00;67770.63;4984352;28;20035;-86
2023/01/05 07:31:01;;;;;;;25.70;6.60;;;;;;;9.02;100.00;67771.19;4991528;28;20042;-83
2023/01/05 07:33:26;;;;;;;28.02;7.13;;;;;;;;;;4990354;28;20054;-84
2023/01/05 07:35:52;;;;;;;21.85;5.30;;;;;;;9.05;100.00;67774.00;4986377;28;20069;-84
2023/01/05 07:38:17;;;;;;;32.33;7.18;;;;;;;;;;4987125;28;20511;-84
2023/01/05 07:40:42;;;;;;;35.42;7.75;;;;;;;9.04;100.00;67767.59;4987882;28;20116;-83
2023/01/05 07:43:07;;;;;;;29.40;5.70;;;;;;;;;;4995000;28;20037;-85
2023/01/05 07:45:33;;;;;;;25.48;5.35;;;;;;;9.06;100.00;67774.56;4993187;28;20050;-86
2023/01/05 07:47:59;;;;;;;28.73;6.47;;;;;;;;;;4995382;28;20773;-84
2023/01/05 07:50:24;;;;;;;21.60;5.80;;;;;;;9.03;100.00;67771.75;4988458;28;20042;-84
2023/01/05 07:52:50;;;;;;;34.83;7.03;;;;;;;9.00;100.00;67765.69;4980423;28;20043;-86
2023/01/05 07:55:15;;;;;;;24.77;6.45;;;;;;;;;;5003349;28;20061;-85
2023/01/05 07:57:40;;;;;;;24.77;6.93;;;;;;;;;;4992664;28;20126;-84
2023/01/05 08:00:06;;;;;;;29.33;7.05;;;;;;;8.93;100.00;67760.41;4992943;28;20133;-84
2023/01/05 08:02:32;;;;;;;33.95;6.60;;;;;;;;;;4990415;28;20500;-87
2023/01/05 08:04:57;;;;;;;29.05;6.95;;;;;;;;;;4992182;28;20049;-83
2023/01/05 08:07:23;;;;;;;29.15;6.90;;;;;;;8.89;100.00;67761.19;4993721;28;20065;-86
2023/01/05 08:13:58;;;;;;;36.92;8.43;;;;;;;8.85;100.00;67749.25;4989735;28;20096;-83
2023/01/05 08:15:18;;;;;;;28.70;7.35;;;;;;;;;;4987486;28;20120;-82
2023/01/05 08:17:43;;;;;;;33.15;7.10;;;;;;;8.84;100.00;67755.53;4990912;28;20042;-85
2023/01/05 08:20:09;;;;;;;32.67;6.72;;;;;;;;;;4997939;28;20053;-87
2023/01/05 08:22:35;;;;;;;33.85;6.45;;;;;;;;;;4989958;28;20129;-84
2023/01/05 08:25:00;;;;;;;33.17;8.23;;;;;;;8.83;100.00;67749.66;4981560;28;20051;-87
2023/01/05 08:27:25;;;;;;;32.03;5.90;;;;;;;8.82;100.00;67754.38;4984339;28;20480;-85
2023/01/05 08:29:51;;;;;;;32.30;7.22;;;;;;;8.82;100.00;67748.53;4986420;28;20038;-85
2023/01/05 08:32:16;;;;;;;40.40;8.65;;;;;;;;;;4990284;28;20034;-85
2023/01/05 08:34:44;;;;;;;35.53;10.00;;;;;;;8.84;100.00;67750.78;4991256;28;20042;-85
2023/01/05 08:37:10;;;;;;;48.73;9.87;;;;;;;;;;4983576;28;20200;-86
2023/01/05 08:39:35;;;;;;;34.17;6.72;;;;;;;;;;4988326;28;20832;-86
2023/01/05 08:42:00;;;;;;;33.38;7.78;;;;;;;8.86;100.00;67752.47;4978847;28;20442;-84
2023/01/05 08:44:26;;;;;;;28.45;7.60;;;;;;;8.88;100.00;67755.31;4981308;28;20050;-86
2023/01/05 08:46:51;;;;;;;35.22;8.98;;;;;;;8.89;100.00;67761.19;4992927;28;20046;-87
2023/01/05 08:49:16;;;;;;;32.63;8.45;;;;;;;8.91;100.00;67758.16;4977091;28;20039;-86
2023/01/05 08:51:42;;;;;;;30.65;7.10;;;;;;;8.91;100.00;67764.03;4987413;28;20137;-85
2023/01/05 08:54:07;;;;;;;38.20;8.85;;;;;;;8.94;100.00;67758.91;4985419;28;20074;-87
2023/01/05 08:56:33;;;;;;;42.13;10.25;;;;;;;;;;4970524;28;20050;-85
2023/01/05 08:58:58;;;;;;;30.52;8.65;;;;;;;8.97;100.00;67765.50;4988730;28;20508;-87
2023/01/05 09:01:24;;;;;;;39.47;8.68;;;;;;;8.99;100.00;67764.56;4984591;28;20058;-85
2023/01/05 09:03:50;;;;;;;30.63;7.40;;;;;;;9.00;100.00;67768.91;4984693;28;20038;-88
2023/01/05 09:06:15;;;;;;;32.15;7.82;;;;;;;9.03;100.00;67772.31;4988631;28;20045;-84
2023/01/05 09:08:44;;;;;;;43.53;8.88;;;;;;;;;;4990684;28;20034;-83
2023/01/05 09:11:22;;;;;;;37.08;9.82;;;;;;;9.07;100.00;67773.63;4990144;28;20542;-84
2023/01/05 09:13:52;;;;;;;28.92;7.40;;;;;;;9.07;100.00;67776.28;4988473;28;20030;-81
2023/01/05 09:16:20;;;;;;;34.03;8.82;;;;;;;;;;4985132;28;20512;-84
2023/01/05 09:18:46;;;;;;;41.60;9.23;;;;;;;;;;4988666;28;20336;-82
2023/01/05 09:21:11;;;;;;;31.17;8.48;;;;;;;;;;4987142;28;20062;-83
2023/01/05 09:23:37;;;;;;;33.13;7.60;;;;;;;;;;4983920;28;20046;-83
2023/01/05 09:26:06;;;;;;;28.25;7.53;;;;;;;;;;4989123;28;20050;-85
2023/01/05 09:28:32;;;;;;;31.65;6.82;;;;;;;9.18;100.00;67786.09;5001875;28;20510;-85
2023/01/05 09:30:57;;;;;;;37.15;8.18;;;;;;;;;;4996130;28;20095;-84
2023/01/05 09:33:23;;;;;;;43.40;8.35;;;;;;;9.21;100.00;67792.16;4990918;28;20074;-85
2023/01/05 09:35:55;;;;;;;23.92;5.95;;;;;;;9.22;100.00;67798.59;4987178;28;20038;-85
2023/01/05 09:38:22;;;;;;;34.20;7.00;;;;;;;9.25;100.00;67796.69;4984236;28;20046;-85
2023/01/05 09:40:48;;;;;;;26.15;6.85;;;;;;;;;;4988421;28;20494;-83
2023/01/05 09:43:20;;;;;;;24.13;5.63;;;;;;;;;;4981156;28;20127;-83
2023/01/05 09:45:47;;;;;;;28.33;5.95;;;;;;;9.33;100.00;67799.88;4983911;28;20427;-84
2023/01/05 09:48:14;;;;;;;31.65;5.80;;;;;;;9.32;100.00;67801.41;4990556;28;20043;-85
2023/01/05 09:50:42;;;;;;;32.45;6.72;;;;;;;9.35;100.00;67806.88;4998786;28;20046;-83
2023/01/05 09:53:08;;;;;;;37.40;8.40;;;;;;;9.36;100.00;67808.03;4985960;28;20117;-83
2023/01/05 09:55:36;;;;;;;29.67;6.55;;;;;;;9.37;100.00;67809.16;4999336;28;20413;-81
2023/01/05 09:58:14;;;;;;;29.85;6.15;;;;;;;9.38;100.00;67810.88;4984527;28;20038;-81
2023/01/05 10:00:42;;;;;;;32.47;6.68;;;;;;;9.39;100.00;67812.00;4982798;28;20035;-85
2023/01/05 10:03:19;;;;;;;28.52;5.85;;;;;;;9.39;100.00;67811.44;4982959;28;20030;-85
2023/01/05 10:05:46;;;;;;;25.77;5.75;;;;;;;9.39;100.00;67806.13;4987237;28;20043;-82
2023/01/05 10:08:18;;;;;;;34.25;6.97;;;;;;;9.40;100.00;67812.56;4984670;28;20052;-86
2023/01/05 10:13:54;;;;;;;27.77;5.28;;;;;;;9.40;100.00;67813.13;4988633;28;20520;-84
2023/01/05 10:16:19;;;;;;;30.02;6.07;;;;;;;9.42;100.00;67814.81;4986175;28;20050;-84
2023/01/05 10:18:46;;;;;;;33.40;5.55;;;;;;;9.41;100.00;67813.69;4988201;28;20039;-85
2023/01/05 10:21:26;;;;;;;30.85;6.43;;;;;;;9.44;100.00;67814.44;4992366;28;20128;-84
2023/01/05 10:24:12;;;;;;;33.05;7.78;;;;;;;9.45;100.00;67818.22;4986533;28;20038;-83
2023/01/05 10:27:01;;;;;;;32.65;7.45;;;;;;;9.46;100.00;67819.34;4986634;28;20046;-83
2023/01/05 10:29:48;;;;;;;27.48;6.18;;;;;;;9.46;100.00;67819.34;4990928;28;20057;-85
2023/01/05 10:32:14;;;;;;;36.90;8.85;;;;;;;;;;4991276;28;20065;-84
2023/01/05 10:34:55;;;;;;;28.45;7.60;;;;;;;9.48;100.00;67821.63;4994906;28;20478;-84
2023/01/05 10:37:40;;;;;;;26.58;6.30;;;;;;;9.48;100.00;67818.97;4993949;28;20041;-84
2023/01/05 10:40:18;;;;;;;27.80;5.80;;;;;;;9.47;100.00;67820.50;4987018;28;20038;-83
2023/01/05 10:42:50;;;;;;;24.25;6.28;;;;;;;9.48;100.00;67818.97;5000125;28;20049;-83
2023/01/05 10:45:18;;;;;;;25.15;5.75;;;;;;;9.49;100.00;67820.69;4987617;28;20397;-85
2023/01/05 10:47:44;;;;;;;24.27;6.45;;;;;;;9.53;100.00;67826.72;4985502;28;20074;-86
2023/01/05 10:50:29;;;;;;;25.55;5.82;;;;;;;9.50;100.00;67829.22;4983350;28;20514;-82
2023/01/05 10:52:54;;;;;;;30.23;7.05;;;;;;;;;;4986906;28;20072;-82
2023/01/05 10:55:21;;;;;;;21.35;6.07;;;;;;;9.51;100.00;67825.03;4981971;28;20073;-84
2023/01/05 10:57:47;;;;;;;28.55;5.13;;;;;;;9.53;100.00;67832.63;4985357;28;20092;-84
2023/01/05 11:00:16;;;;;;;27.65;5.32;;;;;;;9.53;100.00;67832.63;4981465;28;20054;-83
2023/01/05 11:03:01;;;;;;;25.15;5.22;;;;;;;9.54;100.00;67828.44;4979959;28;20128;-82
2023/01/05 11:05:32;;;;;;;27.27;6.43;;;;;;;9.54;100.00;67827.84;4981382;28;20081;-84
2023/01/05 11:08:01;;;;;;;35.03;7.15;;;;;;;9.58;100.00;67832.38;4985820;28;20065;-82
2023/01/05 11:10:28;;;;;;;;;;;;;;;9.56;100.00;67836.00;4981216;28;20043;-83
2023/01/05 11:13:01;;;;;;;21.00;5.07;;;;;;;9.51;100.00;67830.34;4984471;28;19931;-85
2023/01/05 11:15:27;;;;;;;24.67;5.43;;;;;;;;;;4983986;28;20039;-83
2023/01/05 11:17:52;;;;;;;31.92;6.82;;;;;;;9.61;100.00;67836.38;4984788;28;20043;-84
2023/01/05 11:20:18;;;;;;;28.95;7.63;;;;;;;;;;4979913;28;20061;-84
2023/01/05 11:22:43;;;;;;;30.30;5.57;;;;;;;9.63;100.00;67838.63;4989540;28;20047;-83
2023/01/05 11:25:31;;;;;;;31.55;6.70;;;;;;;9.64;100.00;67844.53;4987927;28;20129;-84
2023/01/05 11:28:08;;;;;;;29.05;6.57;;;;;;;9.65;100.00;67838.25;4991256;28;20129;-84
2023/01/05 11:30:34;;;;;;;21.73;6.32;;;;;;;9.68;100.00;67844.28;4980693;28;20146;-83
2023/01/05 11:33:00;;;;;;;25.95;5.10;;;;;;;9.72;100.00;67853.56;4981884;28;21595;-82
2023/01/05 11:35:36;;;;;;;20.08;4.63;;;;;;;9.78;100.00;67851.84;4992206;28;20074;-82
2023/01/05 11:38:03;;;;;;;32.38;5.47;;;;;;;9.78;100.00;67855.09;4982767;28;20042;-82
2023/01/05 11:40:30;;;;;;;26.63;5.00;;;;;;;9.78;100.00;67849.78;4991319;28;20045;-82
2023/01/05 11:42:56;;;;;;;19.75;4.45;;;;;;;;;;4989533;28;20041;-82
2023/01/05 11:45:23;;;;;;;31.95;8.40;;;;;;;;;;4987482;28;20051;-81
2023/01/05 11:47:56;;;;;;;26.17;5.68;;;;;;;9.83;100.00;67858.06;4989593;28;20128;-83
2023/01/05 11:50:26;;;;;;;21.42;4.60;;;;;;;;;;4984795;28;20177;-83
2023/01/05 11:53:01;;;;;;;26.13;5.90;;;;;;;9.85;100.00;67860.34;4983062;28;20048;-84
2023/01/05 11:55:39;;;;;;;22.88;4.88;;;;;;;9.87;100.00;67862.06;4994466;28;20053;-84
2023/01/05 11:58:16;;;;;;;24.38;6.38;;;;;;;9.89;100.00;67866.97;4990729;28;20412;-84
2023/01/05 12:00:51;;;;;;;19.10;4.75;;;;;;;9.88;100.00;67863.19;4991967;28;20188;-84
2023/01/05 12:03:35;;;;;;;28.65;5.63;;;;;;;;;;4986182;28;20100;-85
2023/01/05 12:06:26;;;;;;;26.08;5.68;;;;;;;9.87;100.00;67862.06;4986030;28;20080;-84
2023/01/05 12:09:29;;;;;;;23.85;4.32;;;;;;;9.85;100.00;67862.44;4971552;28;20145;-84
2023/01/05 12:12:13;;;;;;;24.45;4.60;;;;;;;;;;4974612;28;20453;-84
2023/01/05 12:14:53;;;;;;;22.08;4.70;;;;;;;;;;4988587;28;20047;-84
2023/01/05 12:17:29;;;;;;;27.23;5.68;;;;;;;9.86;100.00;67863.56;4994397;28;20050;-83
2023/01/05 12:20:19;;;;;;;25.63;5.47;;;;;;;9.85;100.00;67867.75;5001542;28;20633;-83
2023/01/05 12:22:57;;;;;;;24.15;4.93;;;;;;;9.83;100.00;67866.06;5003774;28;20072;-83
2023/01/05 12:25:31;;;;;;;33.53;7.25;;;;;;;9.85;100.00;67862.44;4993329;28;20057;-83
2023/01/05 12:27:56;;;;;;;24.95;5.68;;;;;;;;;;5003272;28;20058;-84
2023/01/05 12:30:22;;;;;;;26.13;4.63;;;;;;;9.85;100.00;67863.00;4995013;28;20038;-84
2023/01/05 12:33:13;;;;;;;33.25;6.70;;;;;;;9.88;100.00;67866.41;4979632;28;20289;-83
2023/01/05 12:35:45;;;;;;;25.73;6.63;;;;;;;;;;4989508;28;20046;-83
2023/01/05 12:38:19;;;;;;;25.58;6.70;;;;;;;9.85;100.00;67863.00;5054248;22;20050;-82
2023/01/05 12:40:54;;;;;;;28.80;7.20;;;;;;;;;;5001934;28;20053;-82
2023/01/05 12:43:29;;;;;;;35.03;7.28;;;;;;;;;;5018170;28;20056;-83
2023/01/05 12:46:09;;;;;;;28.20;6.20;;;;;;;9.84;100.00;67855.97;4999126;28;20034;-82
2023/01/05 12:48:43;;;;;;;29.13;6.07;;;;;;;9.82;100.00;67856.38;5015225;28;20064;-82
2023/01/05 12:51:25;;;;;;;19.92;4.32;;;;;;;9.82;100.00;67859.63;5002490;28;20069;-82
2023/01/05 12:53:53;;;;;;;21.88;4.70;;;;;;;;;;5003473;28;20089;-82
2023/01/05 12:56:25;;;;;;;29.50;5.10;;;;;;;9.83;100.00;67857.50;4998102;28;20043;-83